Time;durP1;ratioP1;P1;durP2;ratioP2;P2;SDS_P1;SDS_P2;PMS_P1;PMS_P2;Temp;Humidity;BMP_temperature;BMP_pressure;BME280_temperature;BME280_humidity;BME280_pressure;Samples;Min_cycle;Max_cycle;Signal;HPM_P1;HPM_P2
2022/04/11 00:01:34;;;;;;;0.10;0.10;;;;;;;;;;1850996;77;26314;-50
2022/04/11 00:04:02;;;;;;;0.10;0.10;;;;;;;;;;1845945;76;26304;-51
2022/04/11 00:06:29;;;;;;;0.10;0.10;;;;;;;;;;1836431;76;27063;-44
2022/04/11 00:08:56;;;;;;;0.68;0.20;;;;;;;;;;1837367;76;26805;-47
2022/04/11 00:11:23;;;;;;;0.10;0.10;;;;;;;;;;1836221;77;27348;-45
2022/04/11 00:13:53;;;;;;;0.45;0.20;;;;;;;;;;1841535;76;26346;-52
2022/04/11 00:16:20;;;;;;;0.10;0.10;;;;;;;;;;1839447;76;26276;-51
2022/04/11 00:18:48;;;;;;;0.10;0.10;;;;;;;;;;1821392;77;26298;-46
2022/04/11 00:21:15;;;;;;;0.23;0.23;;;;;;;;;;1829761;77;26317;-51
2022/04/11 00:23:42;;;;;;;0.23;0.20;;;;;;;;;;1794429;79;26322;-43
2022/04/11 00:26:09;;;;;;;0.20;0.20;;;;;;;;;;1827365;77;26259;-49
2022/04/11 00:28:37;;;;;;;0.17;0.17;;;;;;;;;;1849698;77;26326;-47
2022/04/11 00:31:04;;;;;;;0.47;0.30;;;;;;;;;;1851526;77;27158;-46
2022/04/11 00:33:31;;;;;;;0.13;0.08;;;;;;;;;;1855265;76;26246;-48
2022/04/11 00:35:59;;;;;;;0.20;0.20;;;;;;;;;;1847905;77;26289;-54
2022/04/11 00:38:26;;;;;;;0.23;0.20;;;;;;;;;;1797883;79;26419;-53
2022/04/11 00:40:53;;;;;;;0.20;0.20;;;;;;;;;;1845898;77;26726;-47
2022/04/11 00:43:31;;;;;;;1.10;0.20;;;;;;;;;;1844230;77;26748;-48
2022/04/11 00:45:58;;;;;;;0.20;0.20;;;;;;;;;;1849153;77;26800;-49
2022/04/11 00:48:26;;;;;;;1.07;0.10;;;;;;;;;;1849818;77;26253;-43
2022/04/11 00:50:54;;;;;;;0.30;0.30;;;;;;;;;;1799185;79;26271;-49
2022/04/11 00:53:22;;;;;;;0.75;0.25;;;;;;;;;;1809216;78;26315;-49
2022/04/11 00:55:51;;;;;;;1.17;0.20;;;;;;;;;;1804114;79;26773;-47
2022/04/11 00:58:18;;;;;;;0.57;0.10;;;;;;;;;;1807791;79;26758;-54
2022/04/11 01:00:46;;;;;;;3.02;0.20;;;;;;;;;;1816328;79;26199;-45
2022/04/11 01:03:13;;;;;;;0.15;0.10;;;;;;;;;;1807633;77;26285;-50
2022/04/11 01:05:42;;;;;;;0.20;0.20;;;;;;;;;;1788623;79;26768;-46
2022/04/11 01:08:10;;;;;;;0.20;0.20;;;;;;;;;;1797093;79;26266;-50
2022/04/11 01:10:37;;;;;;;0.30;0.30;;;;;;;;;;1806375;79;26294;-45
2022/04/11 01:13:05;;;;;;;2.80;0.20;;;;;;;;;;1807548;79;26332;-46
2022/04/11 01:15:32;;;;;;;0.30;0.10;;;;;;;;;;1810204;77;26797;-49
2022/04/11 01:18:00;;;;;;;0.20;0.20;;;;;;;;;;1811844;79;26923;-51
2022/04/11 01:20:27;;;;;;;1.98;0.10;;;;;;;;;;1807833;79;26371;-47
2022/04/11 01:22:54;;;;;;;0.20;0.20;;;;;;;;;;1808632;79;26332;-54
2022/04/11 01:25:22;;;;;;;0.57;0.20;;;;;;;;;;1806982;78;26261;-52
2022/04/11 01:27:49;;;;;;;0.05;0.05;;;;;;;;;;1803727;79;26675;-45
2022/04/11 01:30:18;;;;;;;0.20;0.20;;;;;;;;;;1806250;79;26749;-47
2022/04/11 01:32:45;;;;;;;0.30;0.28;;;;;;;;;;1809766;78;26775;-48
2022/04/11 01:35:20;;;;;;;0.30;0.20;;;;;;;;;;1812138;79;26251;-55
2022/04/11 01:37:48;;;;;;;0.68;0.17;;;;;;;;;;1808328;79;26274;-46
2022/04/11 01:40:15;;;;;;;0.20;0.20;;;;;;;;;;1806473;77;26273;-52
2022/04/11 01:42:45;;;;;;;0.45;0.20;;;;;;;;;;1811359;79;26371;-50
2022/04/11 01:45:13;;;;;;;2.37;0.15;;;;;;;;;;1816030;79;26263;-49
2022/04/11 01:47:41;;;;;;;0.20;0.20;;;;;;;;;;1812115;79;26722;-47
2022/04/11 01:50:09;;;;;;;1.25;0.30;;;;;;;;;;1810002;77;26556;-50
2022/04/11 01:52:37;;;;;;;0.20;0.20;;;;;;;;;;1813768;78;26260;-46
2022/04/11 01:55:05;;;;;;;0.20;0.20;;;;;;;;;;1836637;76;26248;-45
2022/04/11 01:57:32;;;;;;;1.30;0.20;;;;;;;;;;1853835;76;25893;-45
2022/04/11 01:59:59;;;;;;;0.85;0.37;;;;;;;;;;1851213;76;26972;-43
2022/04/11 02:02:27;;;;;;;0.25;0.25;;;;;;;;;;1854753;76;26770;-43
2022/04/11 02:04:54;;;;;;;0.30;0.10;;;;;;;;;;1832561;76;26208;-50
2022/04/11 02:07:22;;;;;;;0.98;0.30;;;;;;;;;;1870026;76;26278;-54
2022/04/11 02:09:49;;;;;;;0.65;0.20;;;;;;;;;;1867008;75;26351;-52
2022/04/11 02:12:16;;;;;;;0.25;0.25;;;;;;;;;;1844956;77;26272;-50
2022/04/11 02:14:43;;;;;;;0.75;0.10;;;;;;;;;;1868634;75;26319;-51
2022/04/11 02:17:11;;;;;;;0.10;0.10;;;;;;;;;;1866193;75;26241;-48
2022/04/11 02:19:38;;;;;;;0.20;0.20;;;;;;;;;;1870625;76;26256;-48
2022/04/11 02:22:05;;;;;;;0.45;0.10;;;;;;;;;;1870596;76;26291;-45
2022/04/11 02:24:33;;;;;;;0.85;0.40;;;;;;;;;;1874690;76;26258;-45
2022/04/11 02:27:00;;;;;;;0.20;0.10;;;;;;;;;;1882322;75;26716;-52
2022/04/11 02:29:27;;;;;;;0.30;0.30;;;;;;;;;;1844132;76;26256;-47
2022/04/11 02:31:54;;;;;;;0.33;0.10;;;;;;;;;;1857215;77;26244;-44
2022/04/11 02:34:25;;;;;;;0.72;0.08;;;;;;;;;;1858124;76;26367;-45
2022/04/11 02:36:51;;;;;;;0.25;0.10;;;;;;;;;;1860527;76;26283;-46
2022/04/11 02:39:18;;;;;;;3.17;0.20;;;;;;;;;;1851959;76;26241;-54
2022/04/11 02:41:45;;;;;;;1.10;0.10;;;;;;;;;;1862685;77;26263;-47
2022/04/11 02:44:12;;;;;;;0.30;0.30;;;;;;;;;;1862355;76;26267;-47
2022/04/11 02:46:42;;;;;;;0.10;0.10;;;;;;;;;;1856891;76;26349;-55
2022/04/11 02:49:09;;;;;;;0.53;0.30;;;;;;;;;;1856372;76;26331;-51
2022/04/11 02:51:36;;;;;;;0.10;0.10;;;;;;;;;;1852052;76;26730;-46
2022/04/11 02:54:07;;;;;;;0.33;0.20;;;;;;;;;;1859493;76;26782;-44
2022/04/11 02:56:32;;;;;;;0.45;0.20;;;;;;;;;;1861870;76;26612;-52
2022/04/11 02:59:00;;;;;;;1.12;0.17;;;;;;;;;;1862800;76;26247;-53
2022/04/11 03:01:27;;;;;;;1.10;0.20;;;;;;;;;;1853448;76;26329;-46
2022/04/11 03:03:54;;;;;;;0.20;0.20;;;;;;;;;;1860615;76;26261;-46
2022/04/11 03:06:21;;;;;;;0.10;0.10;;;;;;;;;;1865637;76;26266;-50
2022/04/11 03:08:49;;;;;;;0.25;0.20;;;;;;;;;;1879453;76;26237;-48
2022/04/11 03:11:20;;;;;;;0.20;0.20;;;;;;;;;;1843106;77;26243;-47
2022/04/11 03:13:47;;;;;;;0.30;0.20;;;;;;;;;;1870026;75;26372;-45
2022/04/11 03:16:14;;;;;;;0.10;0.10;;;;;;;;;;1820333;77;26378;-49
2022/04/11 03:18:41;;;;;;;0.60;0.50;;;;;;;;;;1846749;77;26255;-46
2022/04/11 03:21:08;;;;;;;0.10;0.10;;;;;;;;;;1838756;76;26609;-45
2022/04/11 03:23:35;;;;;;;0.20;0.20;;;;;;;;;;1858641;76;26276;-47
2022/04/11 03:26:03;;;;;;;0.08;0.08;;;;;;;;;;1863544;76;26255;-48
2022/04/11 03:28:30;;;;;;;0.17;0.17;;;;;;;;;;1860714;76;26288;-46
2022/04/11 03:30:57;;;;;;;0.20;0.20;;;;;;;;;;1862932;77;26246;-44
2022/04/11 03:33:24;;;;;;;0.25;0.25;;;;;;;;;;1845302;76;26265;-45
2022/04/11 03:35:52;;;;;;;0.20;0.20;;;;;;;;;;1853700;77;26216;-50
2022/04/11 03:38:19;;;;;;;0.20;0.20;;;;;;;;;;1869174;76;26743;-46
2022/04/11 03:40:46;;;;;;;0.10;0.10;;;;;;;;;;1861716;76;26247;-47
2022/04/11 03:43:14;;;;;;;0.30;0.20;;;;;;;;;;1849326;77;26268;-45
2022/04/11 03:45:41;;;;;;;0.20;0.20;;;;;;;;;;1856466;76;26214;-48
2022/04/11 03:48:08;;;;;;;0.10;0.10;;;;;;;;;;1839003;77;26274;-51
2022/04/11 03:50:35;;;;;;;0.10;0.10;;;;;;;;;;1857283;76;26363;-45
2022/04/11 03:53:03;;;;;;;0.20;0.20;;;;;;;;;;1876816;76;26669;-45
2022/04/11 03:55:30;;;;;;;0.20;0.20;;;;;;;;;;1856871;76;26394;-47
2022/04/11 03:57:57;;;;;;;0.20;0.20;;;;;;;;;;1820428;77;26838;-44
2022/04/11 04:00:25;;;;;;;0.20;0.10;;;;;;;;;;1849640;77;26212;-44
2022/04/11 04:02:52;;;;;;;0.60;0.20;;;;;;;;;;1811426;77;26705;-44
2022/04/11 04:05:19;;;;;;;0.53;0.20;;;;;;;;;;1848031;77;26346;-49
2022/04/11 04:07:46;;;;;;;0.37;0.20;;;;;;;;;;1840180;77;26360;-50
2022/04/11 04:10:14;;;;;;;0.15;0.15;;;;;;;;;;1842502;76;26383;-50
2022/04/11 04:12:41;;;;;;;0.10;0.10;;;;;;;;;;1855881;76;26277;-49
2022/04/11 04:15:09;;;;;;;0.20;0.20;;;;;;;;;;1852212;76;26268;-52
2022/04/11 04:17:36;;;;;;;0.20;0.20;;;;;;;;;;1847764;77;26292;-48
2022/04/11 04:20:04;;;;;;;0.90;0.28;;;;;;;;;;1848050;76;26214;-44
2022/04/11 04:22:31;;;;;;;0.20;0.20;;;;;;;;;;1833336;77;26293;-43
2022/04/11 04:24:59;;;;;;;0.90;0.20;;;;;;;;;;1818757;76;26337;-45
2022/04/11 04:27:26;;;;;;;0.23;0.23;;;;;;;;;;1832629;76;26252;-44
2022/04/11 04:29:53;;;;;;;1.25;0.20;;;;;;;;;;1843502;77;26275;-48
2022/04/11 04:32:22;;;;;;;0.00;0.00;;;;;;;;;;1846450;77;26323;-48
2022/04/11 04:34:50;;;;;;;0.10;0.10;;;;;;;;;;1849845;76;26759;-53
2022/04/11 04:37:17;;;;;;;0.10;0.10;;;;;;;;;;1836967;77;26677;-46
2022/04/11 04:39:44;;;;;;;0.20;0.20;;;;;;;;;;1840510;77;26870;-49
2022/04/11 04:42:12;;;;;;;0.10;0.10;;;;;;;;;;1844761;77;26257;-53
2022/04/11 04:44:44;;;;;;;0.30;0.10;;;;;;;;;;1843305;77;26280;-48
2022/04/11 04:47:10;;;;;;;0.17;0.17;;;;;;;;;;1844608;76;26264;-45
2022/04/11 04:49:37;;;;;;;0.57;0.13;;;;;;;;;;1838540;77;26262;-49
2022/04/11 04:52:06;;;;;;;0.13;0.13;;;;;;;;;;1846007;76;26253;-45
2022/04/11 04:54:33;;;;;;;0.10;0.10;;;;;;;;;;1843531;76;26272;-50
2022/04/11 04:57:01;;;;;;;0.20;0.17;;;;;;;;;;1839346;77;26370;-45
2022/04/11 04:59:28;;;;;;;0.20;0.20;;;;;;;;;;1839370;76;26269;-47
2022/04/11 05:01:56;;;;;;;0.10;0.10;;;;;;;;;;1849315;77;26193;-45
2022/04/11 05:04:23;;;;;;;1.02;0.20;;;;;;;;;;1832057;77;26740;-47
2022/04/11 05:06:50;;;;;;;1.35;0.30;;;;;;;;;;1842340;77;26377;-47
2022/04/11 05:09:18;;;;;;;2.83;0.30;;;;;;;;;;1839565;76;26361;-47
2022/04/11 05:11:45;;;;;;;2.25;0.40;;;;;;;;;;1836751;76;26276;-48
2022/04/11 05:14:13;;;;;;;2.67;0.60;;;;;;;;;;1831199;77;26857;-47
2022/04/11 05:16:40;;;;;;;5.22;0.82;;;;;;;;;;1817892;77;26720;-44
2022/04/11 05:19:07;;;;;;;1.50;0.80;;;;;;;;;;1828033;76;26690;-44
2022/04/11 05:21:34;;;;;;;2.02;0.35;;;;;;;;;;1833410;76;26248;-48
2022/04/11 05:24:02;;;;;;;5.58;0.60;;;;;;;;;;1846109;77;26248;-45
2022/04/11 05:26:29;;;;;;;4.10;0.50;;;;;;;;;;1827956;76;26318;-48
2022/04/11 05:28:56;;;;;;;1.62;0.40;;;;;;;;;;1850062;76;26803;-43
2022/04/11 05:31:24;;;;;;;5.20;0.60;;;;;;;;;;1840378;77;26270;-49
2022/04/11 05:33:51;;;;;;;3.67;0.40;;;;;;;;;;1831252;77;26215;-50
2022/04/11 05:36:18;;;;;;;1.42;0.50;;;;;;;;;;1838428;77;26330;-48
2022/04/11 05:38:46;;;;;;;1.67;0.33;;;;;;;;;;1840094;76;26305;-48
2022/04/11 05:41:14;;;;;;;1.12;0.42;;;;;;;;;;1838746;77;26324;-52
2022/04/11 05:43:42;;;;;;;2.15;0.55;;;;;;;;;;1840727;76;26354;-47
2022/04/11 05:46:10;;;;;;;0.95;0.50;;;;;;;;;;1842564;76;26743;-54
2022/04/11 05:48:40;;;;;;;10.68;0.50;;;;;;;;;;1838923;77;26284;-47
2022/04/11 05:51:07;;;;;;;3.10;0.57;;;;;;;;;;1832990;77;26363;-43
2022/04/11 05:53:34;;;;;;;1.70;0.60;;;;;;;;;;1844339;77;26276;-51
2022/04/11 05:56:01;;;;;;;2.33;0.50;;;;;;;;;;1832994;77;26291;-46
2022/04/11 05:58:28;;;;;;;1.42;0.57;;;;;;;;;;1845540;77;26280;-46
2022/04/11 06:00:56;;;;;;;3.40;0.60;;;;;;;;;;1832313;77;26742;-44
2022/04/11 06:03:23;;;;;;;2.20;0.45;;;;;;;;;;1846504;77;26201;-51
2022/04/11 06:05:51;;;;;;;2.72;0.37;;;;;;;;;;1827037;77;26253;-44
2022/04/11 06:08:18;;;;;;;7.83;0.60;;;;;;;;;;1836558;77;26270;-47
2022/04/11 06:10:46;;;;;;;0.37;0.30;;;;;;;;;;1842456;77;26280;-47
2022/04/11 06:13:14;;;;;;;0.85;0.30;;;;;;;;;;1836344;77;26806;-50
2022/04/11 06:15:41;;;;;;;0.75;0.50;;;;;;;;;;1849246;76;26798;-48
2022/04/11 06:18:08;;;;;;;0.55;0.28;;;;;;;;;;1849441;76;26252;-49
2022/04/11 06:20:35;;;;;;;2.98;0.42;;;;;;;;;;1839211;77;26578;-49
2022/04/11 06:23:03;;;;;;;1.50;0.50;;;;;;;;;;1848196;77;26338;-43
2022/04/11 06:25:30;;;;;;;1.25;0.33;;;;;;;;;;1826308;77;26365;-47
2022/04/11 06:27:58;;;;;;;0.80;0.30;;;;;;;;;;1848321;77;26261;-45
2022/04/11 06:30:25;;;;;;;0.45;0.20;;;;;;;;;;1847243;77;26286;-50
2022/04/11 06:32:52;;;;;;;1.55;0.47;;;;;;;;;;1833217;77;26299;-48
2022/04/11 06:35:19;;;;;;;1.22;0.40;;;;;;;;;;1838778;77;26248;-50
2022/04/11 06:37:47;;;;;;;2.70;0.35;;;;;;;;;;1847158;77;26252;-47
2022/04/11 06:40:14;;;;;;;1.45;0.20;;;;;;;;;;1848500;77;26637;-52
2022/04/11 06:42:41;;;;;;;0.10;0.10;;;;;;;;;;1837529;76;26287;-47
2022/04/11 06:45:09;;;;;;;1.07;0.20;;;;;;;;;;1829419;77;26378;-52
2022/04/11 06:47:36;;;;;;;0.35;0.28;;;;;;;;;;1845816;77;26250;-55
2022/04/11 06:50:04;;;;;;;0.20;0.20;;;;;;;;;;1846822;77;26334;-50
2022/04/11 06:52:31;;;;;;;0.80;0.30;;;;;;;;;;1848394;77;26260;-50
2022/04/11 06:54:58;;;;;;;0.30;0.30;;;;;;;;;;1829112;76;26265;-49
2022/04/11 06:57:25;;;;;;;0.15;0.15;;;;;;;;;;1834846;77;26569;-45
2022/04/11 06:59:53;;;;;;;2.08;0.28;;;;;;;;;;1837059;76;26269;-46
2022/04/11 07:02:21;;;;;;;0.65;0.30;;;;;;;;;;1848193;76;26264;-47
2022/04/11 07:04:48;;;;;;;0.40;0.30;;;;;;;;;;1829949;77;26396;-47
2022/04/11 07:07:15;;;;;;;0.30;0.30;;;;;;;;;;1827744;77;26346;-53
2022/04/11 07:09:43;;;;;;;0.28;0.25;;;;;;;;;;1835112;77;26311;-48
2022/04/11 07:12:10;;;;;;;0.65;0.30;;;;;;;;;;1834734;77;26274;-52
2022/04/11 07:14:38;;;;;;;3.83;0.37;;;;;;;;;;1827071;77;26322;-53
2022/04/11 07:17:05;;;;;;;0.25;0.25;;;;;;;;;;1823835;76;26302;-49
2022/04/11 07:19:33;;;;;;;0.55;0.30;;;;;;;;;;1838008;77;26217;-49
2022/04/11 07:22:00;;;;;;;1.12;0.30;;;;;;;;;;1846881;76;26303;-53
2022/04/11 07:24:28;;;;;;;4.12;0.20;;;;;;;;;;1833847;77;26270;-53
2022/04/11 07:26:55;;;;;;;2.17;0.25;;;;;;;;;;1823243;77;26263;-48
2022/04/11 07:29:22;;;;;;;0.10;0.10;;;;;;;;;;1829111;77;26217;-46
2022/04/11 07:31:50;;;;;;;0.20;0.20;;;;;;;;;;1827276;77;26219;-47
2022/04/11 07:34:17;;;;;;;0.20;0.20;;;;;;;;;;1842404;77;26209;-49
2022/04/11 07:36:44;;;;;;;0.30;0.30;;;;;;;;;;1848423;77;26257;-49
2022/04/11 07:39:13;;;;;;;0.20;0.20;;;;;;;;;;1836739;77;26396;-45
2022/04/11 07:41:40;;;;;;;0.62;0.30;;;;;;;;;;1840869;77;26314;-44
2022/04/11 07:44:08;;;;;;;0.28;0.28;;;;;;;;;;1840787;77;26273;-44
2022/04/11 07:46:35;;;;;;;0.30;0.30;;;;;;;;;;1835985;77;26808;-54
2022/04/11 07:49:02;;;;;;;1.35;0.50;;;;;;;;;;1832199;77;26763;-52
2022/04/11 07:51:30;;;;;;;0.20;0.20;;;;;;;;;;1830961;77;26263;-49
2022/04/11 07:53:57;;;;;;;0.65;0.20;;;;;;;;;;1836212;77;26320;-55
2022/04/11 07:56:24;;;;;;;0.37;0.37;;;;;;;;;;1842834;76;26790;-48
2022/04/11 07:58:51;;;;;;;1.27;0.37;;;;;;;;;;1837482;77;26803;-45
2022/04/11 08:01:19;;;;;;;0.30;0.30;;;;;;;;;;1828022;77;26712;-55
2022/04/11 08:03:47;;;;;;;2.42;0.40;;;;;;;;;;1832901;76;26341;-50
2022/04/11 08:06:14;;;;;;;1.35;0.20;;;;;;;;;;1824948;78;26287;-57
2022/04/11 08:08:44;;;;;;;0.20;0.20;;;;;;;;;;1842289;76;26257;-51
2022/04/11 08:11:12;;;;;;;0.23;0.23;;;;;;;;;;1830929;78;26770;-61
2022/04/11 08:13:39;;;;;;;1.37;0.30;;;;;;;;;;1820774;78;26262;-48
2022/04/11 08:16:07;;;;;;;0.20;0.20;;;;;;;;;;1833900;78;26735;-51
2022/04/11 08:18:34;;;;;;;1.30;0.20;;;;;;;;;;1838900;78;26196;-47
2022/04/11 08:21:02;;;;;;;0.20;0.20;;;;;;;;;;1847287;76;26326;-52
2022/04/11 08:23:29;;;;;;;0.13;0.13;;;;;;;;;;1827796;78;26760;-48
2022/04/11 08:25:57;;;;;;;0.30;0.20;;;;;;;;;;1812922;78;26408;-55
2022/04/11 08:28:24;;;;;;;0.37;0.30;;;;;;;;;;1773672;80;26222;-47
2022/04/11 08:30:51;;;;;;;0.90;0.30;;;;;;;;;;1824876;78;26269;-53
2022/04/11 08:33:19;;;;;;;0.30;0.30;;;;;;;;;;1821052;78;26254;-51
2022/04/11 08:35:46;;;;;;;0.17;0.17;;;;;;;;;;1823265;78;26260;-52
2022/04/11 08:38:13;;;;;;;0.20;0.20;;;;;;;;;;1835942;78;26350;-50
2022/04/11 08:40:41;;;;;;;0.30;0.30;;;;;;;;;;1820582;78;26275;-50
2022/04/11 08:43:09;;;;;;;0.20;0.20;;;;;;;;;;1844301;78;26343;-48
2022/04/11 08:45:37;;;;;;;0.20;0.20;;;;;;;;;;1837857;78;26716;-49
2022/04/11 08:48:04;;;;;;;0.42;0.40;;;;;;;;;;1840939;78;26284;-45
2022/04/11 08:50:32;;;;;;;0.25;0.25;;;;;;;;;;1837981;78;26372;-44
2022/04/11 08:52:59;;;;;;;0.25;0.25;;;;;;;;;;1834007;78;26260;-42
2022/04/11 08:55:27;;;;;;;0.30;0.30;;;;;;;;;;1823981;78;26338;-48
2022/04/11 08:57:54;;;;;;;0.30;0.30;;;;;;;;;;1851548;76;26389;-43
2022/04/11 09:00:22;;;;;;;0.20;0.20;;;;;;;;;;1870731;76;26328;-50
2022/04/11 09:02:49;;;;;;;0.20;0.20;;;;;;;;;;1840111;76;26704;-48
2022/04/11 09:05:21;;;;;;;0.20;0.20;;;;;;;;;;1866878;76;26259;-46
2022/04/11 09:07:59;;;;;;;0.10;0.10;;;;;;;;;;1847440;77;26299;-51
2022/04/11 09:10:28;;;;;;;0.20;0.20;;;;;;;;;;1850673;76;26299;-45
2022/04/11 09:12:56;;;;;;;0.30;0.30;;;;;;;;;;1860698;76;26284;-44
2022/04/11 09:15:24;;;;;;;0.10;0.10;;;;;;;;;;1868841;76;26306;-49
2022/04/11 09:17:52;;;;;;;0.20;0.20;;;;;;;;;;1862961;76;26667;-47
2022/04/11 09:20:24;;;;;;;0.20;0.20;;;;;;;;;;1878062;76;27113;-47
2022/04/11 09:22:51;;;;;;;0.20;0.20;;;;;;;;;;1867928;76;26316;-45
2022/04/11 09:25:19;;;;;;;0.17;0.17;;;;;;;;;;1864861;76;26743;-48
2022/04/11 09:27:47;;;;;;;0.30;0.30;;;;;;;;;;1878392;75;26302;-49
2022/04/11 09:30:22;;;;;;;0.20;0.20;;;;;;;;;;1843544;77;26255;-42
2022/04/11 09:32:53;;;;;;;0.30;0.20;;;;;;;;;;1878280;75;26234;-45
2022/04/11 09:35:21;;;;;;;0.20;0.20;;;;;;;;;;1883459;75;26692;-46
2022/04/11 09:37:50;;;;;;;0.13;0.13;;;;;;;;;;1872867;75;26335;-51
2022/04/11 09:40:23;;;;;;;0.30;0.30;;;;;;;;;;1863785;76;26264;-46
2022/04/11 09:42:52;;;;;;;0.30;0.30;;;;;;;;;;1875601;76;26319;-46
2022/04/11 09:45:20;;;;;;;0.20;0.20;;;;;;;;;;1864226;75;26237;-44
2022/04/11 09:48:00;;;;;;;0.15;0.15;;;;;;;;;;1840837;76;26337;-43
2022/04/11 09:50:32;;;;;;;0.15;0.15;;;;;;;;;;1871892;75;26256;-47
2022/04/11 09:53:13;;;;;;;0.30;0.30;;;;;;;;;;1830819;77;26275;-45
2022/04/11 09:55:40;;;;;;;0.20;0.20;;;;;;;;;;1878844;75;26336;-47
2022/04/11 09:58:08;;;;;;;0.30;0.30;;;;;;;;;;1867696;75;26504;-51
2022/04/11 10:00:36;;;;;;;0.40;0.20;;;;;;;;;;1828695;78;26242;-45
2022/04/11 10:03:09;;;;;;;0.30;0.30;;;;;;;;;;1863970;77;26230;-50
2022/04/11 10:05:34;;;;;;;0.10;0.10;;;;;;;;;;1861691;75;26315;-46
2022/04/11 10:08:05;;;;;;;0.25;0.25;;;;;;;;;;1852742;75;26622;-51
2022/04/11 10:10:39;;;;;;;0.20;0.20;;;;;;;;;;1849983;76;26942;-53
2022/04/11 10:13:06;;;;;;;1.37;0.30;;;;;;;;;;1853190;75;26285;-49
2022/04/11 10:15:34;;;;;;;0.20;0.20;;;;;;;;;;1858838;75;26254;-51
2022/04/11 10:18:01;;;;;;;0.20;0.20;;;;;;;;;;1848647;77;26242;-49
2022/04/11 10:20:32;;;;;;;0.30;0.30;;;;;;;;;;1802255;78;26232;-49
2022/04/11 10:23:10;;;;;;;1.75;0.40;;;;;;;;;;1858797;77;26303;-44
2022/04/11 10:25:38;;;;;;;0.37;0.37;;;;;;;;;;1853001;77;27415;-51
2022/04/11 10:28:16;;;;;;;0.45;0.37;;;;;;;;;;1861720;75;26238;-49
2022/04/11 10:30:44;;;;;;;0.47;0.40;;;;;;;;;;1849632;76;26710;-45
2022/04/11 10:33:12;;;;;;;1.40;0.60;;;;;;;;;;1859327;77;26270;-48
2022/04/11 10:35:45;;;;;;;0.55;0.50;;;;;;;;;;1842323;77;26304;-45
2022/04/11 10:38:15;;;;;;;1.00;0.50;;;;;;;;;;1863181;77;26266;-51
2022/04/11 10:40:49;;;;;;;1.40;0.47;;;;;;;;;;1859851;77;26328;-48
2022/04/11 10:43:18;;;;;;;1.50;0.30;;;;;;;;;;1861698;76;26337;-50
2022/04/11 10:45:58;;;;;;;0.60;0.53;;;;;;;;;;1863356;75;26751;-44
2022/04/11 10:48:43;;;;;;;0.55;0.35;;;;;;;;;;1862869;77;26198;-48
2022/04/11 10:51:17;;;;;;;3.70;0.57;;;;;;;;;;1856537;75;26324;-47
2022/04/11 10:53:45;;;;;;;0.68;0.50;;;;;;;;;;1861470;75;26246;-47
2022/04/11 10:56:13;;;;;;;2.98;0.40;;;;;;;;;;1849226;77;26706;-42
2022/04/11 10:58:52;;;;;;;0.88;0.50;;;;;;;;;;1801760;78;26303;-49
2022/04/11 11:01:18;;;;;;;2.20;0.50;;;;;;;;;;1817909;77;28074;-45
2022/04/11 11:03:59;;;;;;;1.10;0.40;;;;;;;;;;1827946;78;25738;-44
2022/04/11 11:06:26;;;;;;;1.00;0.40;;;;;;;;;;1820969;76;26246;-51
2022/04/11 11:08:53;;;;;;;3.85;0.47;;;;;;;;;;1828341;76;26641;-45
2022/04/11 11:11:22;;;;;;;0.50;0.50;;;;;;;;;;1822233;77;26837;-41
2022/04/11 11:13:50;;;;;;;1.85;0.55;;;;;;;;;;1834786;76;26284;-45
2022/04/11 11:16:19;;;;;;;1.85;0.40;;;;;;;;;;1836265;76;26276;-51
2022/04/11 11:18:51;;;;;;;3.30;0.42;;;;;;;;;;1839453;76;26382;-49
2022/04/11 11:21:37;;;;;;;0.40;0.30;;;;;;;;;;1867060;77;26314;-67
2022/04/11 11:24:10;;;;;;;0.40;0.37;;;;;;;;;;1841247;76;26226;-44
2022/04/11 11:26:45;;;;;;;0.30;0.30;;;;;;;;;;1870822;76;26360;-57
2022/04/11 11:29:14;;;;;;;0.30;0.30;;;;;;;;;;1845145;76;26332;-46
2022/04/11 11:31:42;;;;;;;0.53;0.35;;;;;;;;;;1820751;77;26264;-53
2022/04/11 11:34:11;;;;;;;0.40;0.40;;;;;;;;;;1850273;76;26279;-50
2022/04/11 11:36:40;;;;;;;1.20;0.40;;;;;;;;;;1829613;76;26388;-46
2022/04/11 11:39:18;;;;;;;0.42;0.30;;;;;;;;;;1860867;76;26199;-47
2022/04/11 11:41:46;;;;;;;0.40;0.40;;;;;;;;;;1866907;75;26679;-43
2022/04/11 11:44:14;;;;;;;0.53;0.40;;;;;;;;;;1843901;76;26728;-45
2022/04/11 11:46:58;;;;;;;0.75;0.35;;;;;;;;;;1849349;76;26259;-47
2022/04/11 11:49:27;;;;;;;0.30;0.30;;;;;;;;;;1860538;77;26714;-50
2022/04/11 11:51:54;;;;;;;0.20;0.20;;;;;;;;;;1858002;76;26238;-44
2022/04/11 11:54:35;;;;;;;0.40;0.40;;;;;;;;;;1859333;76;26270;-51
2022/04/11 11:57:04;;;;;;;0.20;0.20;;;;;;;;;;1854517;77;26770;-39
2022/04/11 11:59:31;;;;;;;0.40;0.35;;;;;;;;;;1868749;76;26318;-48
2022/04/11 12:04:44;;;;;;;0.78;0.30;;;;;;;;;;1862906;76;26783;-40
2022/04/11 12:07:11;;;;;;;1.07;0.40;;;;;;;;;;1831718;77;26799;-47
2022/04/11 12:09:41;;;;;;;0.35;0.20;;;;;;;;;;1852999;77;26889;-41
2022/04/11 12:12:09;;;;;;;0.20;0.20;;;;;;;;;;1854623;76;26281;-46
2022/04/11 12:14:54;;;;;;;0.30;0.30;;;;;;;;;;1846411;76;26906;-41
2022/04/11 12:17:23;;;;;;;0.35;0.20;;;;;;;;;;1858337;76;26267;-48
2022/04/11 12:19:50;;;;;;;0.65;0.28;;;;;;;;;;1859609;77;26382;-46
2022/04/11 12:22:18;;;;;;;0.23;0.23;;;;;;;;;;1853270;76;26679;-44
2022/04/11 12:24:45;;;;;;;0.30;0.30;;;;;;;;;;1847608;76;26276;-43
2022/04/11 12:27:14;;;;;;;0.23;0.23;;;;;;;;;;1854107;76;26238;-50
2022/04/11 12:29:42;;;;;;;2.05;0.20;;;;;;;;;;1855904;77;26199;-41
2022/04/11 12:32:13;;;;;;;0.28;0.28;;;;;;;;;;1847829;77;26807;-43
2022/04/11 12:34:42;;;;;;;0.28;0.28;;;;;;;;;;1860203;76;26242;-45
2022/04/11 12:37:11;;;;;;;0.30;0.17;;;;;;;;;;1873572;76;26301;-48
2022/04/11 12:39:52;;;;;;;0.20;0.20;;;;;;;;;;1856062;77;26252;-46
2022/04/11 12:42:21;;;;;;;0.40;0.40;;;;;;;;;;1855197;76;28236;-42
2022/04/11 12:44:49;;;;;;;1.10;0.10;;;;;;;;;;1865188;76;26230;-44
2022/04/11 12:47:16;;;;;;;0.20;0.20;;;;;;;;;;1857414;76;28000;-44
2022/04/11 12:49:48;;;;;;;0.20;0.20;;;;;;;;;;1863241;76;26501;-44
2022/04/11 12:52:16;;;;;;;0.17;0.17;;;;;;;;;;1824913;77;26724;-42
2022/04/11 12:54:47;;;;;;;0.35;0.30;;;;;;;;;;1850058;76;26195;-44
2022/04/11 12:57:25;;;;;;;0.90;0.30;;;;;;;;;;1856905;77;26375;-44
2022/04/11 12:59:53;;;;;;;0.20;0.20;;;;;;;;;;1847314;76;26408;-48
2022/04/11 13:02:22;;;;;;;0.10;0.10;;;;;;;;;;1881468;75;26234;-50
2022/04/11 13:04:55;;;;;;;0.30;0.30;;;;;;;;;;1874429;76;26551;-52
2022/04/11 13:07:21;;;;;;;0.30;0.30;;;;;;;;;;1870889;76;26264;-46
2022/04/11 13:09:49;;;;;;;0.13;0.13;;;;;;;;;;1876951;76;26301;-43
2022/04/11 13:12:18;;;;;;;0.30;0.30;;;;;;;;;;1874299;75;26310;-44
2022/04/11 13:14:47;;;;;;;0.62;0.20;;;;;;;;;;1876381;75;26275;-43
2022/04/11 13:20:01;;;;;;;0.47;0.30;;;;;;;;;;1878023;75;26345;-43
2022/04/11 13:22:29;;;;;;;0.17;0.17;;;;;;;;;;1875971;75;26252;-45
2022/04/11 13:24:56;;;;;;;0.20;0.20;;;;;;;;;;1857154;76;26264;-44
2022/04/11 13:27:28;;;;;;;0.20;0.20;;;;;;;;;;1879451;75;26986;-45
2022/04/11 13:29:53;;;;;;;0.17;0.17;;;;;;;;;;1874591;75;26280;-44
2022/04/11 13:32:22;;;;;;;0.13;0.13;;;;;;;;;;1873751;75;26308;-45
2022/04/11 13:34:50;;;;;;;0.25;0.25;;;;;;;;;;1888084;75;26257;-46
2022/04/11 13:37:18;;;;;;;1.27;0.20;;;;;;;;;;1861723;75;26281;-43
2022/04/11 13:39:47;;;;;;;0.20;0.20;;;;;;;;;;1868976;76;26276;-45
2022/04/11 13:42:14;;;;;;;0.20;0.20;;;;;;;;;;1869890;76;26404;-44
2022/04/11 13:44:42;;;;;;;0.10;0.10;;;;;;;;;;1874876;76;26339;-48
2022/04/11 13:47:10;;;;;;;0.20;0.20;;;;;;;;;;1842343;76;26317;-44
2022/04/11 13:49:38;;;;;;;0.20;0.20;;;;;;;;;;1871193;76;26289;-48
2022/04/11 13:52:07;;;;;;;0.30;0.30;;;;;;;;;;1857499;76;26759;-53
2022/04/11 13:54:34;;;;;;;1.17;0.10;;;;;;;;;;1845739;77;26255;-52
2022/04/11 13:57:01;;;;;;;0.30;0.30;;;;;;;;;;1846559;77;25388;-51
2022/04/11 13:59:28;;;;;;;0.47;0.40;;;;;;;;;;1872792;76;26417;-46
2022/04/11 14:01:56;;;;;;;0.20;0.20;;;;;;;;;;1834550;77;26745;-50
2022/04/11 14:04:24;;;;;;;0.30;0.30;;;;;;;;;;1859111;77;26340;-51
2022/04/11 14:06:51;;;;;;;0.10;0.10;;;;;;;;;;1840291;76;26266;-46
2022/04/11 14:09:19;;;;;;;0.20;0.20;;;;;;;;;;1849685;75;26375;-45
2022/04/11 14:11:47;;;;;;;0.10;0.10;;;;;;;;;;1832442;77;26355;-46
2022/04/11 14:14:14;;;;;;;0.10;0.10;;;;;;;;;;1832490;76;26260;-48
2022/04/11 14:16:42;;;;;;;0.20;0.20;;;;;;;;;;1823387;78;26327;-51
2022/04/11 14:19:09;;;;;;;0.20;0.20;;;;;;;;;;1832509;78;26337;-51
2022/04/11 14:21:37;;;;;;;0.20;0.20;;;;;;;;;;1821985;77;26732;-52
2022/04/11 14:24:05;;;;;;;0.10;0.10;;;;;;;;;;1845755;77;26224;-46
2022/04/11 14:26:32;;;;;;;0.20;0.20;;;;;;;;;;1829699;78;26249;-48
2022/04/11 14:28:59;;;;;;;0.28;0.28;;;;;;;;;;1859559;77;26238;-46
2022/04/11 14:31:27;;;;;;;0.53;0.33;;;;;;;;;;1821819;77;26352;-49
2022/04/11 14:33:54;;;;;;;0.10;0.10;;;;;;;;;;1810455;78;26373;-50
2022/04/11 14:36:22;;;;;;;0.30;0.30;;;;;;;;;;1846255;75;26304;-54
2022/04/11 14:38:49;;;;;;;0.30;0.30;;;;;;;;;;1858127;77;26285;-52
2022/04/11 14:41:16;;;;;;;1.98;0.20;;;;;;;;;;1842787;76;26293;-58
2022/04/11 14:43:44;;;;;;;0.62;0.10;;;;;;;;;;1861813;75;26341;-51
2022/04/11 14:46:11;;;;;;;0.25;0.25;;;;;;;;;;1853653;75;26235;-51
2022/04/11 14:48:39;;;;;;;0.15;0.10;;;;;;;;;;1809571;79;26806;-56
2022/04/11 14:51:07;;;;;;;1.27;0.10;;;;;;;;;;1820606;76;26290;-50
2022/04/11 14:53:34;;;;;;;0.20;0.20;;;;;;;;;;1821127;77;26776;-49
2022/04/11 14:56:02;;;;;;;1.30;0.30;;;;;;;;;;1848698;76;26274;-49